Time;durP1;ratioP1;P1;durP2;ratioP2;P2;SDS_P1;SDS_P2;PMS_P1;PMS_P2;Temp;Humidity;BMP_temperature;BMP_pressure;BME280_temperature;BME280_humidity;BME280_pressure;Samples;Min_cycle;Max_cycle;Signal;HPM_P1;HPM_P2
2022/03/15 00:00:25;;;;;;;17.55;6.45;;;;;;;-0.53;58.59;100572.91;5017543;28;20069;-78
2022/03/15 00:02:50;;;;;;;13.95;6.03;;;;;;;-0.57;58.77;100576.09;5024168;28;20054;-79
2022/03/15 00:05:17;;;;;;;13.98;5.70;;;;;;;-0.59;59.02;100585.34;5045008;28;20138;-79
2022/03/15 00:07:44;;;;;;;11.45;4.93;;;;;;;-0.63;58.59;100585.97;5052760;28;20515;-79
2022/03/15 00:10:12;;;;;;;10.40;4.57;;;;;;;-0.66;58.49;100590.88;5026960;28;20076;-79
2022/03/15 00:12:38;;;;;;;9.10;4.53;;;;;;;-0.70;58.59;100594.03;5041383;28;20045;-78
2022/03/15 00:15:07;;;;;;;9.98;4.20;;;;;;;-0.66;58.75;100595.97;5028636;28;20047;-78
2022/03/15 00:17:32;;;;;;;8.52;4.13;;;;;;;-0.73;58.84;100596.44;5027351;28;20443;-78
2022/03/15 00:19:58;;;;;;;9.68;4.47;;;;;;;-0.82;58.46;100601.03;5057239;28;20037;-78
2022/03/15 00:22:24;;;;;;;6.82;4.10;;;;;;;-0.81;58.82;100610.41;5057739;28;20048;-77
2022/03/15 00:24:49;;;;;;;9.10;5.03;;;;;;;-0.88;59.04;100604.06;5061587;28;20060;-77
2022/03/15 00:27:15;;;;;;;9.20;4.30;;;;;;;-0.89;58.90;100611.63;5050514;28;20037;-78
2022/03/15 00:29:41;;;;;;;7.32;4.45;;;;;;;-0.91;58.81;100608.13;5053400;28;20037;-78
2022/03/15 00:32:08;;;;;;;8.27;4.07;;;;;;;-0.94;58.95;100613.03;5065759;28;20045;-78
2022/03/15 00:34:34;;;;;;;8.40;4.13;;;;;;;-0.98;59.07;100621.31;5033986;28;20040;-78
2022/03/15 00:36:59;;;;;;;;;;;;;;;-1.07;59.52;100625.06;5062833;28;20055;-78
2022/03/15 00:39:25;;;;;;;10.40;4.10;;;;;;;-1.04;58.96;100629.47;5065475;28;20352;-78
2022/03/15 00:41:50;;;;;;;7.63;4.13;;;;;;;-1.02;58.97;100623.66;5065594;28;20048;-79
2022/03/15 00:44:16;;;;;;;8.65;3.65;;;;;;;-1.03;58.88;100624.47;5064043;28;20049;-79
2022/03/15 00:46:43;;;;;;;9.48;4.20;;;;;;;-1.05;58.58;100635.38;5067120;28;20041;-78
2022/03/15 00:49:09;;;;;;;8.35;5.00;;;;;;;-1.06;58.95;100633.59;5063408;28;20040;-78
2022/03/15 00:51:35;;;;;;;10.70;4.20;;;;;;;-1.05;58.84;100635.38;5056678;28;20040;-78
2022/03/15 00:54:01;;;;;;;8.20;4.50;;;;;;;-0.95;58.72;100632.53;5055421;28;20048;-78
2022/03/15 00:56:27;;;;;;;14.05;3.83;;;;;;;-0.93;58.69;100630.09;5044523;28;20501;-77
2022/03/15 00:58:53;;;;;;;11.05;4.65;;;;;;;-0.93;58.61;100638.59;5043947;28;20029;-78
2022/03/15 01:01:19;;;;;;;9.15;4.13;;;;;;;-0.98;58.20;100644.22;5029874;28;20393;-78
2022/03/15 01:03:44;;;;;;;6.72;3.60;;;;;;;-0.99;58.20;100648.44;5041936;28;20519;-78
2022/03/15 01:06:10;;;;;;;;;;;;;;;-1.02;58.37;100650.81;5039278;28;20045;-78
2022/03/15 01:08:38;;;;;;;11.93;3.75;;;;;;;-0.97;58.17;100654.50;5041848;28;20375;-78
2022/03/15 01:11:06;;;;;;;8.02;3.70;;;;;;;-1.03;58.10;100644.84;5056297;28;20044;-78
2022/03/15 01:13:32;;;;;;;8.43;3.60;;;;;;;-1.03;57.96;100646.50;5055887;28;20041;-78
2022/03/15 01:15:57;;;;;;;7.50;3.40;;;;;;;-1.07;58.53;100655.63;5027300;28;20048;-78
2022/03/15 01:18:23;;;;;;;8.57;3.55;;;;;;;-1.10;58.05;100660.56;5042904;28;20024;-78
2022/03/15 01:20:51;;;;;;;;;;;;;;;-1.18;58.08;100659.22;5039057;28;20094;-78
2022/03/15 01:23:17;;;;;;;5.72;3.17;;;;;;;-1.15;58.18;100658.50;5058621;28;20046;-78
2022/03/15 01:25:43;;;;;;;5.28;3.20;;;;;;;-1.10;57.64;100668.19;5049580;28;20046;-77
2022/03/15 01:28:09;;;;;;;6.15;3.53;;;;;;;-1.19;58.01;100666.75;5064729;28;20183;-76
2022/03/15 01:30:35;;;;;;;;;;;;;;;-1.27;57.81;100666.31;5042374;28;20033;-77
2022/03/15 01:33:01;;;;;;;10.35;4.20;;;;;;;-1.32;58.04;100665.19;5051351;28;19912;-79
2022/03/15 01:35:27;;;;;;;9.00;3.55;;;;;;;-1.31;58.34;100677.13;5015758;28;20031;-78
2022/03/15 01:37:52;;;;;;;11.00;4.70;;;;;;;-1.34;57.86;100682.00;5051585;28;20037;-79
2022/03/15 01:40:18;;;;;;;8.93;3.53;;;;;;;-1.36;57.98;100679.38;5067226;28;20083;-78
2022/03/15 01:42:44;;;;;;;8.15;3.45;;;;;;;-1.37;58.51;100687.81;5066191;28;20061;-78
2022/03/15 01:45:10;;;;;;;6.88;3.53;;;;;;;-1.43;58.06;100684.88;5067236;28;20056;-78
2022/03/15 01:47:37;;;;;;;7.82;3.40;;;;;;;-1.45;58.55;100683.03;5057105;28;20044;-78
2022/03/15 01:50:03;;;;;;;9.10;3.85;;;;;;;-1.51;58.88;100693.75;5070867;28;20037;-78
2022/03/15 01:52:29;;;;;;;8.35;3.35;;;;;;;-1.59;58.18;100690.72;5035374;28;20044;-78
2022/03/15 01:54:55;;;;;;;9.32;3.63;;;;;;;-1.60;58.37;100693.19;5031978;28;20480;-79
2022/03/15 01:57:20;;;;;;;8.05;3.20;;;;;;;-1.65;59.24;100690.38;5030471;28;20025;-79
2022/03/15 01:59:46;;;;;;;11.93;3.30;;;;;;;-1.69;59.19;100692.63;5058431;28;20049;-79
2022/03/15 02:02:12;;;;;;;6.35;3.47;;;;;;;-1.71;59.40;100696.72;5021738;28;20438;-78
2022/03/15 02:04:38;;;;;;;;;;;;;;;-1.77;59.62;100701.44;5049310;28;20041;-79
2022/03/15 02:07:12;;;;;;;6.75;3.60;;;;;;;-1.81;59.09;100715.63;5044436;28;20003;-78
2022/03/15 02:09:38;;;;;;;9.93;3.92;;;;;;;-1.87;58.97;100708.50;5029659;28;20052;-78
2022/03/15 02:12:04;;;;;;;11.15;3.33;;;;;;;-1.88;59.11;100723.66;5043425;28;20492;-78
2022/03/15 02:14:30;;;;;;;8.50;3.92;;;;;;;-1.89;59.08;100725.31;5062832;28;20071;-78
2022/03/15 02:16:56;;;;;;;9.77;4.25;;;;;;;-1.82;58.75;100734.22;5048956;28;20032;-78
2022/03/15 02:19:22;;;;;;;11.88;4.57;;;;;;;-1.83;58.55;100730.81;5061531;28;20055;-78
2022/03/15 02:21:48;;;;;;;8.15;3.83;;;;;;;-1.80;58.56;100730.09;5066336;28;20511;-78
2022/03/15 02:24:14;;;;;;;7.70;3.63;;;;;;;-1.84;58.41;100733.22;5049523;28;20045;-78
2022/03/15 02:26:40;;;;;;;9.60;3.95;;;;;;;-1.88;58.66;100737.28;5033521;28;20048;-78
2022/03/15 02:29:06;;;;;;;8.77;3.47;;;;;;;-1.91;58.56;100738.75;5060989;28;20412;-78
2022/03/15 02:31:31;;;;;;;8.25;3.78;;;;;;;-1.93;58.67;100737.75;5045235;28;20041;-76
2022/03/15 02:33:57;;;;;;;7.65;4.05;;;;;;;-1.97;57.91;100741.78;5043993;28;20049;-77
2022/03/15 02:36:23;;;;;;;10.15;3.47;;;;;;;-1.97;58.49;100741.78;5051194;28;20044;-77
2022/03/15 02:38:48;;;;;;;9.48;4.20;;;;;;;-1.96;57.87;100750.28;5071836;28;20041;-79
2022/03/15 02:41:14;;;;;;;7.55;3.72;;;;;;;-2.00;57.64;100743.25;5042935;28;20056;-79
2022/03/15 02:43:41;;;;;;;7.70;3.83;;;;;;;-2.07;57.60;100749.59;5075603;28;20048;-79
2022/03/15 02:46:07;;;;;;;8.63;3.20;;;;;;;-2.07;57.67;100752.13;5076783;28;20518;-79
2022/03/15 02:48:34;;;;;;;7.68;3.80;;;;;;;-2.12;57.29;100753.50;5078668;28;20048;-79
2022/03/15 02:51:07;;;;;;;6.88;3.42;;;;;;;-2.18;57.38;100756.53;5062515;28;20044;-79
2022/03/15 02:53:34;;;;;;;6.95;3.60;;;;;;;-2.17;56.83;100762.50;5078771;28;20052;-78
2022/03/15 02:55:59;;;;;;;9.00;3.50;;;;;;;-2.20;57.33;100763.19;5077565;28;20048;-78
2022/03/15 02:58:25;;;;;;;8.32;3.50;;;;;;;-2.22;57.53;100769.84;5060914;28;20056;-78
2022/03/15 03:00:51;;;;;;;6.78;2.88;;;;;;;-2.24;56.75;100763.78;5057376;28;20155;-79
2022/03/15 03:03:17;;;;;;;8.00;3.42;;;;;;;-2.30;57.48;100771.88;5054153;28;20025;-78
2022/03/15 03:05:43;;;;;;;6.97;3.15;;;;;;;-2.30;56.83;100771.00;5057306;28;20037;-78
2022/03/15 03:08:10;;;;;;;9.35;3.13;;;;;;;-2.31;56.99;100771.78;5074944;28;20033;-78
2022/03/15 03:10:36;;;;;;;6.43;2.92;;;;;;;-2.36;56.62;100775.69;5052767;28;20041;-80
2022/03/15 03:13:02;;;;;;;6.78;3.05;;;;;;;-2.34;56.69;100780.09;5059485;28;20047;-79
2022/03/15 03:15:31;;;;;;;7.00;3.05;;;;;;;-2.40;56.43;100772.06;5019487;28;20052;-79
2022/03/15 03:17:57;;;;;;;5.82;2.58;;;;;;;-2.41;56.36;100783.00;5041089;28;20098;-79
2022/03/15 03:20:23;;;;;;;5.43;2.83;;;;;;;-2.40;56.26;100791.50;5054670;28;20033;-79
2022/03/15 03:22:54;;;;;;;6.72;2.50;;;;;;;-2.42;56.10;100791.41;5066988;28;20068;-79
2022/03/15 03:25:19;;;;;;;5.28;2.75;;;;;;;-2.45;55.81;100796.28;5064614;28;20556;-79
2022/03/15 03:27:48;;;;;;;6.25;3.08;;;;;;;-2.49;56.52;100796.00;5059104;28;20037;-79
2022/03/15 03:30:15;;;;;;;9.45;3.17;;;;;;;-2.59;55.96;100803.00;5053161;28;20045;-79
2022/03/15 03:32:42;;;;;;;6.57;2.90;;;;;;;-2.60;56.28;100805.44;5036649;28;20080;-79
2022/03/15 03:35:08;;;;;;;7.63;2.85;;;;;;;-2.58;56.19;100814.91;5046314;28;20484;-79
2022/03/15 03:37:34;;;;;;;6.18;2.47;;;;;;;-2.58;55.74;100808.97;5026892;28;20026;-79
2022/03/15 03:39:59;;;;;;;;;;;;;;;-2.60;55.02;100815.59;5024223;28;20050;-79
2022/03/15 03:42:25;;;;;;;5.97;2.38;;;;;;;-2.56;55.17;100823.53;5041643;28;19920;-79
2022/03/15 03:44:51;;;;;;;6.47;2.40;;;;;;;-2.67;54.71;100832.09;5053596;28;20033;-79
2022/03/15 03:47:17;;;;;;;4.40;2.50;;;;;;;-2.67;55.01;100827.00;5026535;28;20047;-79
2022/03/15 03:49:43;;;;;;;10.15;2.65;;;;;;;-2.67;54.27;100832.09;5058040;28;20045;-79
2022/03/15 03:52:09;;;;;;;6.43;2.35;;;;;;;-2.74;55.46;100835.00;5040389;28;20559;-78
2022/03/15 03:54:34;;;;;;;;;;;;;;;-2.74;55.14;100829.94;5035508;28;20048;-78
2022/03/15 03:57:00;;;;;;;5.65;2.25;;;;;;;-2.78;54.69;100834.69;5037001;28;20399;-79
2022/03/15 03:59:26;;;;;;;6.47;2.17;;;;;;;-2.82;55.53;100826.84;5035909;28;20477;-78
2022/03/15 04:01:52;;;;;;;5.43;2.03;;;;;;;-2.79;54.91;100840.53;5020823;28;20161;-79
2022/03/15 04:04:18;;;;;;;7.80;2.95;;;;;;;-2.77;54.59;100844.06;5042138;28;20037;-78
2022/03/15 04:06:44;;;;;;;3.90;2.08;;;;;;;-2.83;54.75;100850.50;5044267;28;20061;-78
2022/03/15 04:09:10;;;;;;;5.70;1.92;;;;;;;-2.85;54.59;100856.22;5025912;28;20046;-79
2022/03/15 04:11:36;;;;;;;4.07;2.03;;;;;;;-2.85;54.28;100859.66;5042365;28;20432;-78
2022/03/15 04:14:03;;;;;;;33.75;21.10;;;;;;;-2.85;54.96;100863.84;5049328;28;20098;-79
2022/03/15 04:16:29;;;;;;;5.50;2.08;;;;;;;-2.89;54.32;100869.50;5053897;28;20045;-78
2022/03/15 04:18:55;;;;;;;;;;;;;;;-2.87;55.27;100867.97;5063734;28;20111;-78
2022/03/15 04:21:24;;;;;;;11.15;2.58;;;;;;;-2.78;54.91;100873.66;5053040;28;19913;-79
2022/03/15 04:23:54;;;;;;;5.80;2.72;;;;;;;-2.84;54.69;100866.50;5047720;28;20034;-79
2022/03/15 04:26:21;;;;;;;6.30;3.90;;;;;;;-2.78;54.73;100873.66;5037457;28;20048;-78
2022/03/15 04:28:46;;;;;;;7.35;2.53;;;;;;;-2.78;54.18;100870.25;5065813;28;20033;-78
2022/03/15 04:31:16;;;;;;;12.38;3.00;;;;;;;-2.76;54.93;100876.28;5047980;28;20067;-78
2022/03/15 04:33:42;;;;;;;12.10;3.13;;;;;;;-2.74;55.22;100873.09;5051419;28;20045;-79
2022/03/15 04:36:07;;;;;;;6.63;3.03;;;;;;;-2.79;55.29;100871.91;5060048;28;20033;-78
2022/03/15 04:38:36;;;;;;;8.10;2.70;;;;;;;-2.84;55.46;100870.69;5056113;28;20030;-79
2022/03/15 04:41:05;;;;;;;7.55;2.78;;;;;;;-2.81;55.71;100883.59;5059199;28;20045;-78
2022/03/15 04:43:31;;;;;;;10.57;3.13;;;;;;;-2.77;55.58;100877.09;5054657;28;20040;-78
2022/03/15 04:45:58;;;;;;;5.65;2.90;;;;;;;-2.75;55.26;100878.06;5056491;28;20511;-78
2022/03/15 04:48:23;;;;;;;;;;;;;;;-2.83;55.46;100877.56;5064151;28;20111;-77
2022/03/15 04:50:49;;;;;;;8.43;2.70;;;;;;;-2.83;56.06;100880.97;5051502;28;19936;-78
2022/03/15 04:53:15;;;;;;;5.50;2.80;;;;;;;-2.83;56.54;100885.16;5023567;28;20033;-78
2022/03/15 04:55:41;;;;;;;8.55;2.95;;;;;;;-2.77;56.01;100880.50;5048543;28;20135;-78
2022/03/15 04:58:06;;;;;;;11.75;3.00;;;;;;;-2.72;55.82;100891.84;5060925;28;20048;-79
2022/03/15 05:00:32;;;;;;;7.50;2.85;;;;;;;-2.76;56.08;100899.16;5057270;28;20038;-79
2022/03/15 05:03:01;;;;;;;11.55;2.50;;;;;;;-2.68;55.43;100890.41;5054715;28;20427;-78
2022/03/15 05:05:27;;;;;;;7.63;2.50;;;;;;;-2.67;54.40;100898.13;5058750;28;20052;-78
2022/03/15 05:07:53;;;;;;;7.53;2.50;;;;;;;-2.66;54.27;100893.91;5052203;28;20041;-78
2022/03/15 05:13:03;;;;;;;12.07;2.50;;;;;;;-2.61;54.78;100900.22;5051087;28;20044;-78
2022/03/15 05:15:29;;;;;;;7.65;2.70;;;;;;;-2.57;53.64;100903.06;5059471;28;20045;-81
2022/03/15 05:17:55;;;;;;;12.32;2.72;;;;;;;-2.53;53.86;100908.34;5043464;28;20087;-79
2022/03/15 05:20:21;;;;;;;13.93;2.95;;;;;;;-2.47;54.10;100913.84;5038101;28;20101;-78
2022/03/15 05:22:46;;;;;;;21.60;3.38;;;;;;;-2.45;54.29;100910.63;5056539;28;20057;-79
2022/03/15 05:25:13;;;;;;;86.57;6.40;;;;;;;-2.47;53.19;100911.31;5049850;28;20040;-79
2022/03/15 05:27:39;;;;;;;10.02;2.75;;;;;;;-2.52;53.86;100920.25;5059151;28;20041;-78
2022/03/15 05:30:05;;;;;;;54.45;6.93;;;;;;;-2.46;53.77;100924.13;5026938;28;20098;-78
2022/03/15 05:32:31;;;;;;;26.58;4.28;;;;;;;-2.42;53.70;100922.66;5049485;28;20151;-79
2022/03/15 05:34:57;;;;;;;18.80;3.55;;;;;;;-2.46;52.97;100918.16;5057789;28;20052;-81
2022/03/15 05:37:23;;;;;;;7.95;2.60;;;;;;;-2.48;52.87;100922.22;5060267;28;20044;-80
2022/03/15 05:39:49;;;;;;;18.67;3.33;;;;;;;-2.44;53.25;100924.22;5045812;28;20048;-78
2022/03/15 05:42:18;;;;;;;16.85;2.80;;;;;;;-2.41;53.14;100921.88;5051118;28;20041;-81
2022/03/15 05:44:44;;;;;;;11.15;3.22;;;;;;;-2.37;53.10;100928.94;5054799;28;20045;-80
2022/03/15 05:47:10;;;;;;;14.73;3.03;;;;;;;-2.33;53.05;100923.28;5060307;28;20036;-80
2022/03/15 05:49:36;;;;;;;10.43;2.88;;;;;;;-2.28;52.48;100919.41;5060719;28;20453;-80
2022/03/15 05:52:03;;;;;;;12.63;2.58;;;;;;;-2.17;52.95;100926.06;5045684;28;20045;-80
2022/03/15 05:54:29;;;;;;;15.00;2.83;;;;;;;-2.15;51.95;100918.56;5051599;28;20112;-79
2022/03/15 05:56:55;;;;;;;10.93;3.80;;;;;;;-2.09;52.00;100930.00;5038785;28;20049;-81
2022/03/15 05:59:21;;;;;;;10.43;2.80;;;;;;;-2.11;52.33;100930.66;5042600;28;20026;-78
2022/03/15 06:01:47;;;;;;;8.40;2.45;;;;;;;-2.15;52.74;100932.16;5042405;28;20049;-79
2022/03/15 06:04:12;;;;;;;9.93;2.28;;;;;;;-2.14;52.41;100943.19;5050268;28;20044;-82
2022/03/15 06:06:38;;;;;;;6.72;2.83;;;;;;;-2.14;52.46;100946.63;5046487;28;20037;-79
2022/03/15 06:09:04;;;;;;;7.43;2.83;;;;;;;-2.11;52.66;100951.91;5039868;28;20034;-78
2022/03/15 06:11:32;;;;;;;7.55;2.42;;;;;;;-2.06;53.38;100949.69;5037931;28;20055;-78
2022/03/15 06:13:58;;;;;;;9.00;2.50;;;;;;;-2.02;52.41;100951.63;5059960;28;20115;-78
2022/03/15 06:16:24;;;;;;;10.55;3.47;;;;;;;-2.01;52.09;100958.50;5041306;28;20047;-80
2022/03/15 06:18:50;;;;;;;14.80;2.22;;;;;;;-2.08;52.88;100957.19;5009801;28;20060;-77
2022/03/15 06:21:17;;;;;;;4.70;1.75;;;;;;;-2.11;52.21;100956.09;5039002;28;20037;-77
2022/03/15 06:23:43;;;;;;;7.25;2.30;;;;;;;-2.11;52.45;100954.47;5039398;28;20038;-78
2022/03/15 06:26:09;;;;;;;10.35;2.50;;;;;;;-2.01;52.40;100962.69;5038116;28;20041;-78
2022/03/15 06:28:35;;;;;;;;;;;;;;;-2.02;51.91;100966.00;5040857;28;20097;-79
2022/03/15 06:31:02;;;;;;;6.22;1.98;;;;;;;-2.00;51.57;100960.25;5026897;28;19916;-78
2022/03/15 06:33:27;;;;;;;9.02;1.88;;;;;;;-1.95;51.99;100958.00;5056939;28;20033;-79
2022/03/15 06:35:53;;;;;;;8.40;1.98;;;;;;;-1.92;52.08;100964.19;5046057;28;20087;-79
2022/03/15 06:38:19;;;;;;;12.13;2.17;;;;;;;-1.93;52.75;100953.91;5044126;28;20551;-79
2022/03/15 06:40:47;;;;;;;11.82;2.50;;;;;;;-1.85;51.95;100960.38;5057979;28;20041;-79
2022/03/15 06:43:13;;;;;;;6.97;1.60;;;;;;;-1.83;51.07;100966.47;5055331;28;20044;-80
2022/03/15 06:45:41;;;;;;;4.90;1.90;;;;;;;-1.78;51.01;100967.66;5030298;28;20132;-78
2022/03/15 06:48:07;;;;;;;7.35;2.13;;;;;;;-1.74;51.19;100964.53;5041666;28;20029;-78
2022/03/15 06:50:34;;;;;;;8.90;2.40;;;;;;;-1.65;51.41;100970.22;5058269;28;20045;-79
2022/03/15 06:53:00;;;;;;;6.50;1.80;;;;;;;-1.60;50.75;100963.75;5056905;28;20487;-78
2022/03/15 06:55:26;;;;;;;7.78;1.83;;;;;;;-1.61;49.83;100972.16;5008755;28;20041;-77
2022/03/15 06:57:52;;;;;;;4.05;1.75;;;;;;;-1.63;49.85;100971.19;5043669;28;20034;-78
2022/03/15 07:00:20;;;;;;;3.42;1.67;;;;;;;-1.63;50.23;100971.19;5044269;28;20128;-79
2022/03/15 07:02:45;;;;;;;9.73;2.22;;;;;;;-1.60;49.50;100967.97;5024923;28;20468;-79
2022/03/15 07:05:11;;;;;;;3.47;1.55;;;;;;;-1.58;49.87;100964.72;5042426;28;20041;-78
2022/03/15 07:07:37;;;;;;;9.98;2.35;;;;;;;-1.55;49.79;100969.16;5042452;28;20087;-78
2022/03/15 07:10:05;;;;;;;11.63;2.05;;;;;;;-1.47;50.30;100972.16;5041225;28;20187;-79
2022/03/15 07:12:32;;;;;;;12.43;1.80;;;;;;;-1.45;49.46;100974.06;5026024;28;20021;-79
2022/03/15 07:15:00;;;;;;;5.55;1.70;;;;;;;-1.40;48.61;100976.91;5055150;28;20064;-79
2022/03/15 07:17:27;;;;;;;28.27;3.20;;;;;;;-1.40;48.99;100976.91;5055090;28;20105;-79
2022/03/15 07:19:53;;;;;;;13.27;1.98;;;;;;;-1.38;48.49;100973.66;5024455;28;20586;-79
2022/03/15 07:22:18;;;;;;;4.72;2.28;;;;;;;-1.32;48.53;100975.72;5040828;28;20045;-79
2022/03/15 07:24:44;;;;;;;7.53;1.85;;;;;;;-1.28;48.54;100980.25;5040004;28;20109;-80
2022/03/15 07:27:10;;;;;;;8.57;1.85;;;;;;;-1.25;48.55;100982.09;5042617;28;20033;-80
2022/03/15 07:29:35;;;;;;;10.23;1.83;;;;;;;-1.21;48.25;100987.47;5039786;28;20396;-80
2022/03/15 07:32:01;;;;;;;5.53;1.60;;;;;;;-1.14;47.86;100979.44;5042503;28;20068;-79
2022/03/15 07:34:27;;;;;;;3.05;1.67;;;;;;;-1.10;47.59;100983.97;5041430;28;20140;-79
2022/03/15 07:36:53;;;;;;;9.80;1.75;;;;;;;-1.11;47.49;100982.16;5043257;28;20041;-80
2022/03/15 07:39:18;;;;;;;5.40;1.60;;;;;;;-1.12;47.86;100980.41;5042229;28;20053;-81
2022/03/15 07:41:46;;;;;;;3.65;1.42;;;;;;;-1.07;47.79;100984.13;5041371;28;20033;-78
2022/03/15 07:44:12;;;;;;;6.50;1.40;;;;;;;-1.06;47.29;100985.00;5042659;28;20389;-78
2022/03/15 07:46:38;;;;;;;9.90;3.65;;;;;;;-0.99;47.13;100986.28;5042525;28;20091;-80
2022/03/15 07:49:03;;;;;;;;;;;;;;;-0.98;46.89;100988.94;5026075;28;20547;-78
2022/03/15 07:51:29;;;;;;;5.78;1.80;;;;;;;-0.92;46.69;100988.44;5043293;28;19964;-78
2022/03/15 07:53:55;;;;;;;7.78;1.70;;;;;;;-0.91;46.21;100990.22;5042014;28;20044;-79
2022/03/15 07:56:21;;;;;;;;;;;;;;;-0.83;46.28;100989.00;5042483;28;20056;-80
2022/03/15 07:58:47;;;;;;;3.40;1.45;;;;;;;-0.80;45.60;100987.53;5039609;28;19916;-81
2022/03/15 08:01:13;;;;;;;20.90;1.60;;;;;;;-0.78;45.84;100991.06;5041176;28;20064;-80
2022/03/15 08:03:38;;;;;;;6.78;1.60;;;;;;;-0.72;45.30;100992.25;5025306;28;20480;-78
2022/03/15 08:06:04;;;;;;;7.32;1.60;;;;;;;-0.69;45.34;100998.38;5024441;28;20101;-79
2022/03/15 08:08:30;;;;;;;5.85;1.52;;;;;;;-0.65;45.11;100995.25;5040128;28;20038;-78
2022/03/15 08:10:56;;;;;;;2.53;1.20;;;;;;;-0.64;45.29;100997.03;5024798;28;20040;-79
2022/03/15 08:13:22;;;;;;;5.13;2.60;;;;;;;-0.58;45.12;100992.31;5019609;28;20114;-79
2022/03/15 08:15:48;;;;;;;6.15;2.00;;;;;;;-0.51;45.04;100991.88;5043570;28;20045;-78
2022/03/15 08:18:14;;;;;;;2.85;1.50;;;;;;;-0.45;44.31;100998.16;5042066;28;20033;-80
2022/03/15 08:20:40;;;;;;;3.67;1.50;;;;;;;-0.43;44.19;100996.56;5058217;28;20384;-79
2022/03/15 08:23:07;;;;;;;3.88;1.50;;;;;;;-0.39;44.07;101001.06;5007499;28;20049;-79
2022/03/15 08:25:32;;;;;;;3.25;1.20;;;;;;;-0.34;43.65;100999.69;5053141;28;20459;-79
2022/03/15 08:28:00;;;;;;;3.70;1.23;;;;;;;-0.34;43.23;100990.38;5057516;28;20044;-78
2022/03/15 08:30:27;;;;;;;7.22;1.33;;;;;;;-0.30;43.05;100988.88;5034997;28;20033;-78
2022/03/15 08:32:53;;;;;;;3.67;1.20;;;;;;;-0.23;43.28;100985.91;5047502;28;20045;-79
2022/03/15 08:35:19;;;;;;;8.35;2.20;;;;;;;-0.07;42.70;100988.59;5062817;28;20033;-79
2022/03/15 08:37:50;;;;;;;12.95;2.30;;;;;;;-0.04;41.64;100987.91;5061577;28;20041;-79
2022/03/15 08:40:16;;;;;;;2.42;1.13;;;;;;;-0.11;41.00;100986.66;5034865;28;20071;-79
2022/03/15 08:42:44;;;;;;;2.50;1.48;;;;;;;-0.13;40.78;100982.25;5059466;28;20491;-78
2022/03/15 08:45:10;;;;;;;5.60;1.35;;;;;;;-0.09;41.58;100989.28;5043950;28;20064;-79
2022/03/15 08:47:37;;;;;;;6.47;1.10;;;;;;;-0.04;41.31;100986.22;5049473;28;20033;-78
2022/03/15 08:50:04;;;;;;;4.70;1.48;;;;;;;0.02;41.41;100987.38;5042826;28;20037;-78
2022/03/15 08:52:29;;;;;;;4.95;1.20;;;;;;;0.09;41.47;100984.38;5031095;28;20036;-78
2022/03/15 08:54:55;;;;;;;4.18;1.10;;;;;;;0.19;41.38;100986.72;5046795;28;20037;-80
2022/03/15 08:57:21;;;;;;;5.20;1.90;;;;;;;0.28;40.80;100996.59;5040143;28;20043;-80
2022/03/15 08:59:47;;;;;;;5.80;1.50;;;;;;;0.31;40.27;100997.63;5052471;28;20451;-80
2022/03/15 09:02:12;;;;;;;11.90;4.45;;;;;;;0.34;40.46;100997.81;5038356;28;20057;-79
2022/03/15 09:04:39;;;;;;;7.20;2.70;;;;;;;0.39;40.26;100995.53;5039896;28;20519;-79
2022/03/15 09:07:04;;;;;;;1.70;0.90;;;;;;;0.40;40.27;101000.69;5021984;28;20041;-81
2022/03/15 09:09:30;;;;;;;2.92;1.10;;;;;;;0.40;39.80;100992.16;5039604;28;20416;-79
2022/03/15 09:11:56;;;;;;;7.82;1.65;;;;;;;0.50;39.49;100994.44;5040362;28;20045;-79
2022/03/15 09:14:21;;;;;;;10.20;1.13;;;;;;;0.47;39.45;100997.72;5031266;28;20126;-78
2022/03/15 09:16:48;;;;;;;2.50;0.80;;;;;;;0.61;39.18;100992.53;5060320;28;20055;-80
2022/03/15 09:19:13;;;;;;;;;;;;;;;0.54;39.39;100990.41;5047514;28;20452;-79
2022/03/15 09:21:39;;;;;;;2.72;0.90;;;;;;;0.58;39.57;100987.25;5047591;28;19928;-78
2022/03/15 09:24:05;;;;;;;2.00;0.88;;;;;;;0.74;39.76;100995.88;5055303;28;20104;-79
2022/03/15 09:26:32;;;;;;;8.10;1.20;;;;;;;0.90;39.38;101000.16;5037829;28;20083;-78
2022/03/15 09:28:58;;;;;;;6.57;1.38;;;;;;;1.04;39.10;100994.94;5056305;28;20044;-78
2022/03/15 09:31:23;;;;;;;5.78;1.08;;;;;;;1.20;38.56;100995.00;5035114;28;20037;-79
2022/03/15 09:33:49;;;;;;;1.48;0.80;;;;;;;1.34;38.20;100988.06;5044647;28;20045;-78
2022/03/15 09:36:15;;;;;;;4.75;1.10;;;;;;;1.53;37.86;100991.69;5058686;28;20029;-79
2022/03/15 09:38:42;;;;;;;6.57;1.05;;;;;;;1.74;37.66;100991.03;5059496;28;20033;-78
2022/03/15 09:41:08;;;;;;;1.92;0.98;;;;;;;2.12;37.41;100987.06;5037325;28;20044;-78
2022/03/15 09:43:39;;;;;;;3.47;1.60;;;;;;;3.62;34.59;100990.03;5047107;28;20112;-79
2022/03/15 09:46:05;;;;;;;3.45;1.60;;;;;;;4.89;32.38;100986.81;5057709;28;20069;-81
2022/03/15 09:48:32;;;;;;;5.93;2.00;;;;;;;6.16;30.19;100984.75;5053480;28;20488;-79
2022/03/15 09:50:57;;;;;;;3.90;1.20;;;;;;;6.81;29.35;100987.78;5054508;28;20044;-79
2022/03/15 09:53:23;;;;;;;12.32;2.35;;;;;;;7.51;27.69;100982.22;5045688;28;20037;-78
2022/03/15 09:55:49;;;;;;;8.27;1.98;;;;;;;8.15;26.85;100986.63;5043734;28;20532;-78
2022/03/15 09:58:24;;;;;;;7.05;3.20;;;;;;;8.94;26.24;100984.34;5040818;28;20037;-79
2022/03/15 10:00:54;;;;;;;5.18;1.42;;;;;;;9.49;25.11;100980.41;5050407;28;20549;-79
2022/03/15 10:03:20;;;;;;;1.80;0.80;;;;;;;9.86;23.99;100983.75;5040732;28;20373;-79
2022/03/15 10:05:45;;;;;;;1.13;0.63;;;;;;;10.16;23.94;100976.53;5049166;28;20036;-79
2022/03/15 10:08:15;;;;;;;;;;;;;;;10.89;22.92;100976.97;5044376;28;20047;-79
2022/03/15 10:10:42;;;;;;;2.28;0.77;;;;;;;11.10;22.08;100972.97;5035043;28;19916;-79
2022/03/15 10:13:08;;;;;;;2.80;1.45;;;;;;;11.13;22.22;100962.59;5022624;28;20033;-80
2022/03/15 10:15:34;;;;;;;10.35;2.25;;;;;;;11.42;22.71;100968.22;5014318;28;20041;-80
2022/03/15 10:18:06;;;;;;;;;;;;;;;11.85;21.24;100963.56;5046210;28;20040;-79
2022/03/15 10:20:40;;;;;;;2.83;1.17;;;;;;;11.40;22.29;100959.50;5045862;28;19984;-78
2022/03/15 10:23:08;;;;;;;4.68;1.00;;;;;;;11.18;22.96;100956.63;5026526;28;20052;-79
2022/03/15 10:25:35;;;;;;;11.70;7.78;;;;;;;11.67;21.80;100962.47;5060524;28;20139;-79
2022/03/15 10:28:06;;;;;;;4.55;1.52;;;;;;;11.84;21.35;100964.44;5062562;28;20053;-80
2022/03/15 10:30:32;;;;;;;8.68;1.00;;;;;;;11.98;21.69;100967.19;5032478;28;20047;-78
2022/03/15 10:32:58;;;;;;;6.13;2.40;;;;;;;12.30;20.89;100970.13;5042452;28;20530;-79
2022/03/15 10:35:29;;;;;;;4.57;1.60;;;;;;;12.34;20.95;100971.91;5057481;28;20070;-80
2022/03/15 10:37:55;;;;;;;3.92;1.63;;;;;;;12.68;21.19;100953.09;5067208;28;20047;-80
2022/03/15 10:40:51;;;;;;;;;;;;;;;12.76;20.34;100954.91;5059734;28;20056;-79
2022/03/15 10:43:24;;;;;;;2.42;0.80;;;;;;;12.60;20.52;100960.00;5043717;28;19956;-79
2022/03/15 10:45:57;;;;;;;3.15;1.10;;;;;;;12.67;20.70;100955.69;5052026;28;20041;-79
2022/03/15 10:48:24;;;;;;;4.90;1.10;;;;;;;12.73;20.99;100955.75;5032423;28;20045;-80
2022/03/15 10:50:55;;;;;;;3.13;1.30;;;;;;;12.66;20.77;100949.63;5044690;28;20034;-81
2022/03/15 10:53:25;;;;;;;6.00;1.67;;;;;;;12.84;20.81;100951.50;5015314;28;20145;-79
2022/03/15 10:56:21;;;;;;;3.53;1.55;;;;;;;12.59;20.65;100945.22;5048183;28;20099;-80
2022/03/15 10:59:03;;;;;;;4.97;1.38;;;;;;;13.13;20.29;100956.03;5034052;28;20076;-79
2022/03/15 11:01:38;;;;;;;8.27;1.40;;;;;;;13.22;20.19;100954.38;5045070;28;20516;-80
2022/03/15 11:04:13;;;;;;;1.40;0.90;;;;;;;13.13;20.05;100948.22;5027984;28;20063;-80
2022/03/15 11:06:43;;;;;;;3.30;1.10;;;;;;;13.03;20.58;100949.88;5027837;28;20045;-78
2022/03/15 11:09:18;;;;;;;2.90;1.10;;;;;;;13.28;20.55;100948.31;5033539;28;20033;-81
2022/03/15 11:11:52;;;;;;;2.30;0.98;;;;;;;13.57;19.67;100950.22;5059100;28;20119;-80
2022/03/15 11:14:28;;;;;;;3.00;1.15;;;;;;;13.47;19.33;100947.56;5056190;28;20045;-80
2022/03/15 11:16:54;;;;;;;;;;;;;;;14.05;18.47;100939.06;5051339;28;20041;-80
2022/03/15 11:19:20;;;;;;;1.73;1.00;;;;;;;14.61;18.70;100938.25;5069710;28;19962;-80
2022/03/15 11:21:47;;;;;;;2.33;1.10;;;;;;;14.64;18.65;100938.28;5069187;28;20495;-79
2022/03/15 11:24:12;;;;;;;3.85;1.20;;;;;;;14.90;17.98;100930.41;5051856;28;20044;-80
2022/03/15 11:26:39;;;;;;;4.22;1.52;;;;;;;14.71;18.23;100929.56;5041654;28;20050;-79
2022/03/15 11:29:07;;;;;;;3.03;1.58;;;;;;;14.57;18.05;100936.56;5049533;28;20100;-79